DAAJ

Djanet Inedbirene Airport

Djanet, Algeria
METAR DAAJ 162300Z 04006KT CAVOK 04/M11 Q1020
Observed Flight Rules
Jan-16 @ 23:00 UTC (22 minutes ago) Visual Flight Rules
Wind Visibility Clouds
40° at 6 knots 10,000+ meters
  • Clear skies
Temperatures Readings
Current 4°C / 39°F
Dewpoint -11°C / 12°F
Humidity 33%
Altimeter 30.12" Hg
Pressure 1019.92 hPa
Elevation 968
METAR DAAJ 162300Z 04006KT CAVOK 04/M11 Q1020
Observed Flight Rules
Jan-16 @ 23:00 UTC
(22 minutes ago)
VFR
Wind Visibility
40° at 6 knots 10,000+ meters
Clouds
  • Clear skies
Temperature Dewpoint
4°C / 39°F -11°C / 12°F
Humidity Altimeter Pressure
33% 30.12" Hg 1019.92 hPa